Hlavní strana
METAR-TAF:

METAR-TAF

Letiště :

Oak Ridge, Tennessee, Spojené státy americké

zeměpisná šířka: 36-01-22N, zeměpisná délka: 084-14W, výška: 279 m

Aktuální stav počasí

Zpráva byla vytvořena před 28 minutami, v 10:53 UTC
Bezvětří
Teplota 23°C
Vlhkost vzduchu 89%
Tlak 1015 hPa
Viditelnost: 4.8 km
Oblačno až skoro zataženo ve výšce 11000 ft
kouřmo

METAR: KOQT 051053Z AUTO 00000KT 3SM BR BKN110 23/21 A2998 RMK AO2 SLP134 T02330211

Čas: 07:21 (11:21 UTC)


TAF: chybějící

Stav a předpovědi počasí z více než 4 000 letišť (zprávy METAR a TAF).

Červené a žluté tečky na mapě představují dostupné meteorologické stanice.

Když kurzor umístíte na tečku, zobrazí se název stanice.

Pak kliknutím zobrazíte stav a předpověď počasí.

Chcete-li změnit mapu, kliknutím na zelené tlačítko se znaménkem +mapu přiblížíte, kliknutím na zelené tlačítko se znaménkem – mapu oddálíte a kliknutím na zelené šipky přejdete na sousední mapy.


METAR-TAF: